Latest Coastal Weather Observations for Adelaide Airport

IDS60701

Issued at 12:35 am CDT Tuesday 25 November 2014 (issued every 10 minutes, with the page automatically refreshed every 10 minutes)

About coastal observations | Map of coastal stations | Coastal observations for SA | Marine services | Other Formats
Station Details ID: 023034 Name: ADELAIDE AIRPORT Lat: -34.95 Lon: 138.52 Height: 2.0 m
Data from the previous 72 hours. | See also: Recent months at Adelaide Airport
Date/Time
CDT
Temp

°C
Wind Pressure Rain
since 9am
mm
Weather Cloud Vis
km
Sea
Height
m
Swell
Dir
 
Speed
knots
Gust
knots
hPa Trend Height
m
Period
s
Dir
25/12:30am 15.5 SSW 12 17 1019.8 - 0.0 - Mostly clear 10 - - - -
25/12:00am 15.6 S 7 12 1019.9 R 0.0 Fine Mostly clear 30 - - - -
 
Date/Time
CDT
Temp

°C
Wind Pressure Rain
since 9am
mm
Weather Cloud Vis
km
Sea
Height
m
Swell
Dir
 
Speed
knots
Gust
knots
hPa Trend Height
m
Period
s
Dir
24/11:30pm 14.7 S 7 9 1019.9 - 0.0 - Mostly clear 10 - - - -
24/11:00pm 14.5 S 8 12 1019.7 - 0.0 - Mostly clear 10 - - - -
24/10:30pm 15.2 S 8 11 1019.5 - 0.0 - Mostly clear 10 - - - -
24/10:00pm 15.4 S 11 15 1019.2 - 0.0 - Mostly clear 10 - - - -
24/09:30pm 16.4 SSW 13 18 1018.6 - 0.0 - Mostly clear 10 - - - -
24/09:00pm 16.7 SSW 15 19 1018.2 R 0.0 Haze Partly cloudy 30 - - - -
24/08:30pm 16.9 SSW 14 19 1017.9 - 0.0 - Mostly clear 10 - - - -
24/08:00pm 17.2 SW 18 25 1017.5 - 0.0 - Mostly clear 10 - - - -
24/07:30pm 17.2 SW 18 24 1017.0 - 0.0 - Mostly clear 10 - - - -
24/07:00pm 17.7 SW 21 27 1016.6 - 0.0 - Mostly clear 10 - - - -
24/06:30pm 18.4 SW 20 26 1016.4 - 0.0 - Mostly clear 10 - - - -
24/06:00pm 18.6 WSW 21 25 1016.2 R 0.0 Fine Partly cloudy 30 - - - -
24/05:30pm 18.5 SW 20 26 1016.0 - 0.0 - Mostly clear 10 - - - -
24/05:00pm 18.9 SW 21 26 1015.8 - 0.0 - Mostly clear 10 - - - -
24/04:30pm 19.9 SW 21 27 1015.5 - 0.0 - Mostly clear 10 - - - -
24/04:00pm 19.7 SW 21 26 1015.4 - 0.0 - Mostly clear 10 - - - -
24/03:30pm 20.1 WSW 21 27 1015.2 - 0.0 - Mostly clear 10 - - - -
24/03:00pm 20.4 SW 19 24 1015.1 R 0.0 Fine Partly cloudy 30 - - - -
24/02:30pm 20.9 SW 17 21 1015.0 - 0.0 - Partly cloudy 10 - - - -
24/02:00pm 20.1 SW 17 22 1014.9 - 0.0 - Partly cloudy 10 - - - -
24/01:30pm 19.6 SW 15 19 1014.7 - 0.0 - Mostly clear 10 - - - -
24/01:00pm 20.4 SW 17 22 1014.4 - 0.0 - Partly cloudy 10 - - - -
24/12:30pm 20.0 WSW 16 20 1014.3 - 0.0 - Mostly clear 10 - - - -
24/12:00pm 20.5 WSW 15 18 1014.2 R 0.0 Fine Mostly cloudy 30 - - - -
24/11:30am 19.9 WSW 15 19 1013.9 - 0.0 - Mostly clear 10 - - - -
24/11:00am 20.5 WSW 17 21 1013.6 - 0.0 - Mostly clear 10 - - - -
24/10:30am 20.3 SW 17 22 1013.3 - 0.0 - Mostly clear 10 - - - -
24/10:00am 21.0 SW 13 18 1013.0 - 0.0 - Mostly clear 10 - - - -
24/09:30am 20.5 SSW 11 17 1012.8 - 0.0 - Mostly clear 10 - - - -
24/09:00am 20.3 SSW 12 16 1012.3 R 0.0 Fine Partly cloudy 30 - - - -
24/08:30am 19.0 SSW 11 14 1011.8 - 0.0 - Partly cloudy 10 - - - -
24/08:00am 18.8 S 9 13 1011.1 - 0.0 - Partly cloudy 10 - - - -
24/07:30am 18.2 S 11 15 1010.8 - 0.0 - Mostly clear 10 - - - -
24/07:00am 17.8 S 15 20 1009.8 - 0.0 - Partly cloudy 10 - - - -
24/06:30am 17.7 S 15 19 1008.9 - 0.0 - Mostly clear 10 - - - -
24/06:00am 18.6 SSW 13 17 1007.9 R 0.0 Recent th'storm Mostly cloudy 30 - - - -
24/05:30am 19.1 SSE 10 13 1007.0 - 0.0 - Partly cloudy 10 - - - -
24/05:00am 19.9 SSE 11 15 1006.4 - 0.0 - Mostly clear 10 - - - -
24/04:30am 20.3 S 6 7 1006.1 - 0.0 Thunder Mostly clear 10 - - - -
24/04:00am 19.9 SW 11 14 1005.9 - 0.0 - Mostly clear 10 - - - -
24/03:30am 22.2 WNW 6 8 1005.6 - 0.0 - Mostly clear 10 - - - -
24/03:00am 23.2 NE 9 11 1005.5 F 0.0 Thunder Cloudy 30 - - - -
24/02:30am 23.6 NE 14 17 1005.8 - 0.0 - - 10 - - - -
24/02:00am 23.7 NE 11 17 1006.2 - 0.0 - - 10 - - - -
24/01:30am 20.5 NNE 5 12 1006.6 - 0.0 - - 10 - - - -
24/01:00am 21.1 SSW 6 7 1007.4 - 0.0 - - 10 - - - -
24/12:30am 23.2 NE 8 11 1007.5 - 0.0 - - 10 - - - -
24/12:00am 22.5 NE 7 8 1007.7 F 0.0 Fine Mostly cloudy 30 - - - -
 
Date/Time
CDT
Temp

°C
Wind Pressure Rain
since 9am
mm
Weather Cloud Vis
km
Sea
Height
m
Swell
Dir
 
Speed
knots
Gust
knots
hPa Trend Height
m
Period
s
Dir
23/11:30pm 22.5 SSE 6 7 1008.0 - 0.0 - - 10 - - - -
23/11:00pm 22.9 ESE 8 10 1008.1 - 0.0 - - 10 - - - -
23/10:30pm 22.6 SE 7 9 1008.5 - 0.0 - - 10 - - - -
23/10:00pm 23.2 SSE 10 13 1008.4 - 0.0 - - 10 - - - -
23/09:30pm 24.0 S 9 10 1008.6 - 0.0 - - 10 - - - -
23/09:00pm 24.1 S 7 9 1008.4 F 0.0 Fine Partly cloudy 35 - - - -
23/08:30pm 25.1 SSE 9 12 1008.2 - 0.0 - - 10 - - - -
23/08:00pm 26.1 S 7 8 1008.1 - 0.0 - - 10 - - - -
23/07:30pm 26.8 SE 8 10 1007.6 - 0.0 - - 10 - - - -
23/07:00pm 26.0 SE 6 9 1007.9 - 0.0 - - 10 - - - -
23/06:30pm 27.6 SE 8 11 1008.0 - 0.0 - - 10 - - - -
23/06:00pm 26.0 SSW 7 8 1008.9 F 0.0 Fine Mostly cloudy 30 - - - -
23/05:30pm 23.2 SW 6 7 1009.5 - 0.0 - - 10 - - - -
23/05:00pm 25.4 S 6 8 1009.6 - 0.0 - - 10 - - - -
23/04:30pm 24.7 S 5 7 1010.3 - 0.0 - - 10 - - - -
23/04:00pm 24.2 S 6 9 1010.7 - 0.0 - - 10 - - - -
23/03:30pm 22.7 SW 6 8 1011.7 - 0.0 - - 10 - - - -
23/03:00pm 21.5 W 9 10 1012.6 R 0.0 Fine Mostly cloudy 30 - - - -
23/02:30pm 22.1 W 12 15 1012.2 - 0.0 - - 10 - - - -
23/02:00pm 22.1 WSW 11 13 1011.7 - 0.0 - - 10 - - - -
23/01:30pm 22.1 SSW 9 12 1011.8 - 0.0 - - 10 - - - -
23/01:00pm 21.4 SW 10 14 1012.4 - 0.0 - - 10 - - - -
23/12:30pm 20.3 SW 11 14 1012.7 - 0.0 - - 10 - - - -
23/12:00pm 21.2 WSW 9 12 1012.9 R 0.0 Fine Mostly cloudy 30 - - - -
23/11:30am 20.1 SW 8 10 1012.7 - 0.0 - - 10 - - - -
23/11:00am 20.4 WSW 8 10 1012.4 - 0.0 - - 10 - - - -
23/10:30am 20.2 WSW 8 10 1012.3 - 0.0 - - 10 - - - -
23/10:00am 20.3 WSW 8 10 1012.1 - 0.0 - - 10 - - - -
23/09:30am 20.6 SSE 5 7 1011.7 - 0.0 - - 10 - - - -
23/09:00am 19.5 E 2 5 1012.1 F 5.8 Fine Mostly clear 30 - - - -
23/08:30am 18.4 NE 3 5 1012.5 - 5.8 - - 10 - - - -
23/08:00am 17.3 ENE 4 6 1012.5 - 5.8 - - 10 - - - -
23/07:30am 16.2 ENE 4 5 1012.5 - 5.8 - - 10 - - - -
23/07:00am 14.5 E 5 5 1012.7 - 5.8 - - 10 - - - -
23/06:30am 12.9 CALM 0 0 1012.5 - 5.8 - - 10 - - - -
23/06:00am 12.4 ENE 2 4 1012.6 R 5.8 Fine Clear 30 - - - -
23/05:30am 12.6 NE 1 4 1012.2 - 5.8 - - 10 - - - -
23/05:00am 12.3 NE 5 5 1012.2 - 5.8 - - 10 - - - -
23/04:30am 12.9 NE 3 4 1011.9 - 5.8 - - 10 - - - -
23/04:00am 13.0 NNE 4 5 1011.9 - 5.8 - - 10 - - - -
23/03:30am 14.1 ENE 2 5 1011.6 - 5.8 - - 10 - - - -
23/03:00am 13.9 CALM 0 0 1011.8 R 5.8 Fine Clear 30 - - - -
23/02:30am 14.1 E 1 4 1011.8 - 5.8 - - 10 - - - -
23/02:00am 14.5 E 2 3 1011.7 - 5.8 - - 10 - - - -
23/01:30am 14.6 S 5 6 1011.9 - 5.8 - - 10 - - - -
23/01:00am 15.1 S 6 7 1012.3 - 5.8 - - 10 - - - -
23/12:30am 15.5 S 5 6 1012.5 - 5.8 - - 10 - - - -
23/12:00am 15.6 S 6 7 1012.4 R 5.6 Fine Clear 30 - - - -
 
Date/Time
CDT
Temp

°C
Wind Pressure Rain
since 9am
mm
Weather Cloud Vis
km
Sea
Height
m
Swell
Dir
 
Speed
knots
Gust
knots
hPa Trend Height
m
Period
s
Dir
22/11:30pm 16.2 S 5 6 1012.5 - 5.6 - - 10 - - - -
22/11:00pm 17.0 SSE 5 6 1012.3 - 5.6 - - 10 - - - -
22/10:30pm 17.7 S 8 10 1012.2 - 5.6 - - 10 - - - -
22/10:00pm 18.2 S 10 13 1011.8 - 5.6 - - 10 - - - -
22/09:30pm 18.6 SSW 5 6 1011.2 - 5.6 - - 10 - - - -
22/09:00pm 17.9 CALM 0 0 1010.7 R 5.6 Fine Clear 30 - - - -
22/08:30pm 18.3 CALM 0 1 1010.1 - 5.6 - - 10 - - - -
22/08:00pm 18.9 SW 5 7 1009.7 - 5.6 - - 10 - - - -
22/07:30pm 19.4 SW 10 13 1009.3 - 5.6 - - 10 - - - -
22/07:00pm 20.3 SW 7 10 1008.9 - 5.6 - Partly cloudy 10 - - - -
22/06:30pm 20.8 SW 13 17 1008.7 - 5.6 - Partly cloudy 10 - - - -
22/06:00pm 21.8 SSW 10 14 1008.3 R 5.6 Fine Mostly cloudy 30 - - - -
22/05:30pm 21.8 SSW 13 18 1008.1 - 5.6 - Mostly clear 10 - - - -
22/05:00pm 21.7 SSW 10 14 1007.7 - 5.6 - Mostly clear 10 - - - -
22/04:30pm 22.0 WSW 9 11 1007.5 - 5.6 - Partly cloudy 10 - - - -
22/04:00pm 22.6 WSW 8 10 1007.1 - 5.6 - Mostly clear 10 - - - -
22/03:30pm 21.7 W 2 6 1007.3 - 5.6 - Mostly clear 10 - - - -
22/03:17pm 20.6 WSW 5 7 1007.3 - 5.6 Thunderstorm Mostly clear 10 - - - -
22/03:00pm 20.5 SSW 5 6 1006.7 R 5.6 Thunderstorm Mostly cloudy 6 - - - -
22/02:53pm 20.5 WNW 10 12 1007.9 - 4.4 Thunderstorm Mostly cloudy 5 - - - -
22/02:30pm 23.2 N 7 9 1007.4 - 4.0 Thunder Mostly clear 10 - - - -
22/02:00pm 22.5 E 5 7 1006.6 - 4.0 Thunder Partly cloudy 10 - - - -
22/01:30pm 21.8 WSW 6 10 1008.4 - 3.6 Thunderstorm Partly cloudy 8 - - - -
22/01:22pm 23.0 SW 5 7 1007.6 - 3.6 Thunder Partly cloudy 10 - - - -
22/01:00pm 22.8 ENE 3 5 1007.1 - 3.6 - Partly cloudy 10 - - - -
22/12:30pm 21.4 ESE 6 8 1006.9 - 3.6 - Partly cloudy 10 - - - -
22/12:00pm 20.4 SE 4 6 1007.0 F 3.4 Thunderstorm Mostly cloudy 8 - - - -
22/11:52am 20.6 ENE 11 14 1007.1 - 2.8 Thunderstorm Partly cloudy 10 - - - -
22/11:30am 20.1 NNE 9 13 1006.8 - 2.8 - Partly cloudy 10 - - - -
22/11:00am 19.0 NNE 15 16 1008.1 - 2.8 Thunderstorm Partly cloudy 8 - - - -
22/10:38am 19.4 ESE 6 9 1008.1 - 2.6 Thunder Partly cloudy 10 - - - -
22/10:30am 19.4 E 6 9 1007.7 - 2.6 - Partly cloudy 10 - - - -
22/10:00am 19.0 NNE 7 12 1007.6 - 2.4 Rain Mostly clear 8 - - - -
22/09:30am 19.8 NE 8 15 1008.3 - 0.2 Rain Mostly clear 10 - - - -
22/09:13am 19.2 ENE 11 12 1007.5 - 0.0 Thunderstorm Mostly clear 8 - - - -
22/09:00am 19.0 N 6 8 1009.5 R 1.6 Thunderstorm Cloudy 8 - - - -
22/08:41am 19.4 SE 5 8 1009.1 - 1.0 Showers Mostly cloudy 10 - - - -
22/08:30am 20.2 ENE 6 10 1008.8 - 0.8 Showers Mostly cloudy 6 - - - -
22/08:16am 20.0 NW 5 9 1010.1 - 0.4 Showers Mostly cloudy 10 - - - -
22/08:00am 19.9 E 7 10 1008.0 - 0.4 - Partly cloudy 10 - - - -
22/07:40am 19.5 NE 8 10 1007.9 - 0.4 - Partly cloudy 10 - - - -
22/07:30am 19.4 NNE 10 14 1008.0 - 0.4 Showers Mostly cloudy 6 - - - -
22/07:00am 23.5 NNE 14 18 1007.1 - 0.0 - Partly cloudy 10 - - - -
22/06:30am 23.6 N 15 19 1006.1 - 0.0 - - 10 - - - -
22/06:00am 23.6 NNE 17 23 1005.8 F 0.0 Distant precip. Mostly cloudy 30 - - - -
22/05:30am 24.5 N 15 29 1006.8 - 0.0 Showers Mostly cloudy 10 - - - -
22/05:00am 24.6 NE 10 14 1005.5 - 0.0 - Cloudy 10 - - - -
22/04:30am 23.8 NE 10 13 1005.1 - 0.0 - Partly cloudy 10 - - - -
22/04:00am 23.5 NE 12 16 1004.9 - 0.0 - - 10 - - - -
22/03:30am 23.0 NE 12 14 1005.4 - 0.0 - - 10 - - - -
22/03:00am 22.7 NE 11 14 1005.5 F 0.0 Fine Partly cloudy 30 - - - -
22/02:30am 23.1 NE 12 15 1005.4 - 0.0 - - 10 - - - -
22/02:00am 22.9 NE 12 15 1006.0 - 0.0 - - 10 - - - -
22/01:30am 23.0 NE 12 16 1006.4 - 0.0 - - 10 - - - -
22/01:00am 22.5 NE 11 14 1006.5 - 0.0 - - 10 - - - -

Other Formats:

Comma delimited format used in spreadsheet applications
http://www.bom.gov.au/fwo/IDS60701/IDS60701.94672.axf

JavaScript Object Notation format (JSON) in row-major order
http://www.bom.gov.au/fwo/IDS60701/IDS60701.94672.json